Terminal Aerodrome Forecast
Issued by NWS

Home | Current Version | Previous Version | Text Only | Print | Product List | Glossary On
Versions: 1 2 3 4 5 6 7 8 9 10 11 12 13 14 15
000
FTUS44 KBMX 202339
TAFEET
TAF
KEET 202339Z 2100/2124 00000KT P6SM SCT100
      TEMPO 2100/2102 01009G16KT
     FM210700 00000KT 5SM BR SKC
     FM211400 12004KT P6SM FEW040=

USA.gov is the U.S. government's official web portal to all federal, state and local government web resources and services.